createdAt,value
2023-01-31T00:01:12.696Z,17.93
2023-01-31T00:03:40.729Z,21.20
2023-01-31T00:06:13.109Z,24.33
2023-01-31T00:08:41.281Z,17.70
2023-01-31T00:11:09.056Z,13.00
2023-01-31T00:13:39.291Z,15.60
2023-01-31T00:16:07.729Z,16.23
2023-01-31T00:18:36.044Z,17.27
2023-01-31T00:21:07.975Z,21.40
2023-01-31T00:23:36.111Z,19.67
2023-01-31T00:26:11.222Z,17.80
2023-01-31T00:28:41.039Z,14.03
2023-01-31T00:31:09.350Z,31.73
2023-01-31T00:33:38.709Z,21.63
2023-01-31T00:36:07.161Z,14.30
2023-01-31T00:38:35.119Z,17.33
2023-01-31T00:41:03.919Z,17.47
2023-01-31T00:43:34.791Z,13.13
2023-01-31T00:46:04.934Z,13.80
2023-01-31T00:48:33.213Z,17.73
2023-01-31T00:51:01.202Z,13.30
2023-01-31T00:53:29.373Z,13.13
2023-01-31T00:56:03.033Z,14.63
2023-01-31T00:58:30.804Z,11.90
2023-01-31T01:01:06.084Z,16.50
2023-01-31T01:03:35.735Z,22.00
2023-01-31T01:06:03.792Z,14.83
2023-01-31T01:08:32.590Z,12.00
2023-01-31T01:11:05.172Z,19.43
2023-01-31T01:13:33.009Z,15.77
2023-01-31T01:16:04.862Z,18.10
2023-01-31T01:18:35.156Z,19.43
2023-01-31T01:21:07.611Z,19.47
2023-01-31T01:23:37.080Z,23.23
2023-01-31T01:26:05.216Z,20.23
2023-01-31T01:28:34.373Z,18.10
2023-01-31T01:31:05.722Z,15.17
2023-01-31T01:33:33.938Z,15.83
2023-01-31T01:36:02.203Z,11.60
2023-01-31T01:38:31.388Z,16.27
2023-01-31T01:40:59.387Z,12.77
2023-01-31T01:43:40.749Z,20.33
2023-01-31T01:46:10.093Z,20.27
2023-01-31T01:48:38.558Z,8.63
2023-01-31T01:51:07.933Z,19.57
2023-01-31T01:53:40.653Z,15.83
2023-01-31T01:56:09.959Z,17.80
2023-01-31T01:58:40.017Z,14.27
2023-01-31T02:01:08.667Z,14.83
2023-01-31T02:03:36.826Z,17.13
2023-01-31T02:06:06.513Z,14.70
2023-01-31T02:08:36.109Z,18.40
2023-01-31T02:11:09.211Z,16.60
2023-01-31T02:13:39.587Z,13.97
2023-01-31T02:16:07.524Z,14.13
2023-01-31T02:18:35.563Z,23.07
2023-01-31T02:21:35.770Z,11.97
2023-01-31T02:24:22.317Z,26.83
2023-01-31T02:27:11.064Z,12.83
2023-01-31T02:29:50.329Z,13.87
2023-01-31T02:32:42.346Z,12.20
2023-01-31T02:35:13.996Z,23.07
2023-01-31T02:37:45.188Z,16.87
2023-01-31T02:40:18.542Z,18.37
2023-01-31T02:42:52.471Z,14.33
2023-01-31T02:45:23.127Z,16.70
2023-01-31T02:48:01.093Z,14.07
2023-01-31T02:50:31.971Z,16.17
2023-01-31T02:53:04.482Z,26.07
2023-01-31T02:55:54.707Z,20.60
2023-01-31T02:58:28.241Z,14.30
2023-01-31T03:00:57.444Z,17.93
2023-01-31T03:03:28.999Z,24.80
2023-01-31T03:06:23.239Z,14.40
2023-01-31T03:08:53.265Z,17.23
2023-01-31T03:11:22.528Z,15.53
2023-01-31T03:13:56.783Z,21.93
2023-01-31T03:16:46.179Z,16.47
2023-01-31T03:19:17.560Z,18.60
2023-01-31T03:21:47.173Z,18.90
2023-01-31T03:24:16.031Z,22.03
2023-01-31T03:26:44.481Z,14.43
2023-01-31T03:29:15.450Z,10.63
2023-01-31T03:31:48.426Z,14.53
2023-01-31T03:34:18.424Z,13.80
2023-01-31T03:36:54.382Z,22.97
2023-01-31T03:40:03.749Z,25.23
2023-01-31T03:42:39.266Z,13.30
2023-01-31T03:45:10.476Z,18.67
2023-01-31T03:47:40.192Z,17.23
2023-01-31T03:50:12.142Z,12.13
2023-01-31T03:52:42.321Z,16.17
2023-01-31T03:55:14.791Z,17.30
2023-01-31T03:57:43.406Z,19.33
2023-01-31T04:00:14.149Z,19.57
2023-01-31T04:02:54.015Z,15.80
2023-01-31T04:05:24.905Z,9.97
2023-01-31T04:07:56.246Z,13.70
2023-01-31T04:10:26.413Z,17.00
2023-01-31T04:12:54.496Z,13.37
2023-01-31T04:15:22.651Z,19.77
2023-01-31T04:17:50.599Z,11.37
2023-01-31T04:20:18.280Z,19.77
2023-01-31T04:22:47.955Z,16.67
2023-01-31T04:25:15.642Z,18.77
2023-01-31T04:27:43.498Z,12.63
2023-01-31T04:30:11.973Z,14.60
2023-01-31T04:32:39.664Z,18.03
2023-01-31T04:35:07.511Z,13.57
2023-01-31T04:37:35.751Z,10.37
2023-01-31T04:40:05.249Z,16.23
2023-01-31T04:42:33.320Z,17.20
2023-01-31T04:45:01.293Z,20.03
2023-01-31T04:47:29.006Z,20.97
2023-01-31T04:49:56.639Z,25.73
2023-01-31T04:52:25.084Z,17.47
2023-01-31T04:54:52.751Z,18.57
2023-01-31T04:57:22.015Z,16.13
2023-01-31T04:59:50.402Z,13.97
2023-01-31T05:02:18.684Z,19.87
2023-01-31T05:04:47.100Z,13.67
2023-01-31T05:07:15.096Z,15.30
2023-01-31T05:09:43.974Z,15.77
2023-01-31T05:12:11.640Z,17.37
2023-01-31T05:14:40.976Z,14.23
2023-01-31T05:17:09.674Z,14.80
2023-01-31T05:19:37.289Z,18.23
2023-01-31T05:22:05.414Z,13.83
2023-01-31T05:24:33.662Z,14.33
2023-01-31T05:27:02.383Z,12.63
2023-01-31T05:29:31.059Z,11.50
2023-01-31T05:32:00.813Z,17.13
2023-01-31T05:34:31.139Z,20.10
2023-01-31T05:36:58.906Z,14.10
2023-01-31T05:39:28.832Z,12.13
2023-01-31T05:41:56.935Z,17.03
2023-01-31T05:44:24.726Z,14.47
2023-01-31T05:46:52.475Z,14.43
2023-01-31T05:49:21.435Z,11.60
2023-01-31T05:51:49.310Z,12.57
2023-01-31T05:54:16.946Z,11.27
2023-01-31T05:56:44.783Z,19.57
2023-01-31T05:59:12.624Z,17.27
2023-01-31T06:01:40.286Z,15.90
2023-01-31T06:04:07.919Z,16.80
2023-01-31T06:06:37.061Z,9.70
2023-01-31T06:09:04.923Z,9.03
2023-01-31T06:11:33.197Z,21.43
2023-01-31T06:14:01.255Z,15.93
2023-01-31T06:16:31.176Z,12.20
2023-01-31T06:18:59.079Z,16.23
2023-01-31T06:21:26.862Z,20.60
2023-01-31T06:23:55.939Z,17.00
2023-01-31T06:26:23.757Z,22.50
2023-01-31T06:28:51.377Z,20.77
2023-01-31T06:31:19.498Z,14.17
2023-01-31T06:33:48.208Z,19.67
2023-01-31T06:36:18.696Z,9.90
2023-01-31T06:38:49.734Z,16.57
2023-01-31T06:41:19.449Z,17.40
2023-01-31T06:43:47.155Z,17.80
2023-01-31T06:46:15.108Z,21.83
2023-01-31T06:48:43.681Z,16.43
2023-01-31T06:51:11.438Z,19.23
2023-01-31T06:53:39.079Z,13.73
2023-01-31T06:56:07.693Z,16.73
2023-01-31T06:58:37.073Z,15.57
2023-01-31T07:01:05.685Z,13.00
2023-01-31T07:03:33.428Z,12.70
2023-01-31T07:06:01.375Z,12.23
2023-01-31T07:08:29.288Z,14.23
2023-01-31T07:10:57.102Z,13.33
2023-01-31T07:13:24.793Z,16.40
2023-01-31T07:15:53.846Z,16.97
2023-01-31T07:18:21.696Z,13.27
2023-01-31T07:20:49.379Z,14.13
2023-01-31T07:23:17.271Z,15.37
2023-01-31T07:25:44.946Z,18.07
2023-01-31T07:28:12.943Z,17.23
2023-01-31T07:30:43.883Z,14.57
2023-01-31T07:33:13.158Z,19.67
2023-01-31T07:35:42.589Z,16.90
2023-01-31T07:38:11.478Z,13.07
2023-01-31T07:40:40.182Z,13.63
2023-01-31T07:43:08.312Z,11.03
2023-01-31T07:45:36.297Z,15.23
2023-01-31T07:48:04.219Z,16.33
2023-01-31T07:50:33.332Z,16.83
2023-01-31T07:53:01.417Z,14.57
2023-01-31T07:55:29.794Z,21.50
2023-01-31T07:57:57.728Z,16.57
2023-01-31T08:00:42.998Z,13.57
2023-01-31T08:03:36.390Z,14.53
2023-01-31T08:06:08.574Z,13.70
2023-01-31T08:08:36.615Z,16.10
2023-01-31T08:11:05.493Z,11.90
2023-01-31T08:13:33.762Z,15.30
2023-01-31T08:16:01.820Z,22.47
2023-01-31T08:18:29.477Z,9.80
2023-01-31T08:20:57.679Z,14.17
2023-01-31T08:23:27.526Z,14.67
2023-01-31T08:26:00.412Z,16.13
2023-01-31T08:28:28.196Z,13.30
2023-01-31T08:31:07.688Z,7.50
2023-01-31T08:33:37.630Z,11.03
2023-01-31T08:36:12.257Z,16.40
2023-01-31T08:38:42.085Z,17.13
2023-01-31T08:41:09.799Z,15.07
2023-01-31T08:43:53.753Z,18.10
2023-01-31T08:46:23.641Z,18.20
2023-01-31T08:48:51.389Z,14.93
2023-01-31T08:51:19.046Z,13.50
2023-01-31T08:53:48.326Z,12.40
2023-01-31T08:56:16.688Z,16.07
2023-01-31T08:58:45.160Z,11.60
2023-01-31T09:01:14.002Z,15.30
2023-01-31T09:03:44.922Z,13.10
2023-01-31T09:06:13.971Z,11.70
2023-01-31T09:08:41.619Z,15.10
2023-01-31T09:11:10.645Z,15.53
2023-01-31T09:13:38.390Z,16.70
2023-01-31T09:16:10.354Z,15.40
2023-01-31T09:18:39.054Z,21.03
2023-01-31T09:21:07.988Z,16.77
2023-01-31T09:23:35.849Z,30.37
2023-01-31T09:26:03.853Z,15.67
2023-01-31T09:28:33.256Z,18.60
2023-01-31T09:31:03.632Z,28.40
2023-01-31T09:33:32.176Z,17.87
2023-01-31T09:36:00.941Z,13.30
2023-01-31T09:38:28.753Z,18.40
2023-01-31T09:40:57.207Z,21.87
2023-01-31T09:43:26.884Z,12.43
2023-01-31T09:45:57.547Z,14.50
2023-01-31T09:48:27.522Z,12.40
2023-01-31T09:50:57.237Z,19.60
2023-01-31T09:53:31.511Z,13.63
2023-01-31T09:56:06.148Z,19.83
2023-01-31T09:58:36.984Z,15.70
2023-01-31T10:01:10.371Z,22.53
2023-01-31T10:03:52.806Z,19.30
2023-01-31T10:06:23.666Z,13.90
2023-01-31T10:08:54.163Z,21.83
2023-01-31T10:11:29.388Z,14.43
2023-01-31T10:13:58.491Z,14.17
2023-01-31T10:16:29.245Z,17.70
2023-01-31T10:19:00.623Z,11.40
2023-01-31T10:21:31.574Z,20.73
2023-01-31T10:24:00.863Z,24.27
2023-01-31T10:26:30.477Z,16.90
2023-01-31T10:29:01.291Z,18.27
2023-01-31T10:31:33.464Z,13.70
2023-01-31T10:34:04.233Z,13.10
2023-01-31T10:36:34.463Z,10.20
2023-01-31T10:39:05.285Z,13.93
2023-01-31T10:41:39.728Z,16.43
2023-01-31T10:44:09.480Z,19.67
2023-01-31T10:46:38.779Z,19.23
2023-01-31T10:49:06.415Z,15.23
2023-01-31T10:51:42.147Z,16.90
2023-01-31T10:54:15.704Z,14.53
2023-01-31T10:56:44.336Z,19.20
2023-01-31T10:59:13.952Z,17.60
2023-01-31T11:01:42.913Z,20.10
2023-01-31T11:04:22.961Z,21.77
2023-01-31T11:06:50.692Z,14.03
2023-01-31T11:09:18.434Z,18.20
2023-01-31T11:11:54.323Z,17.17
2023-01-31T11:14:22.196Z,18.23
2023-01-31T11:16:57.104Z,19.13
2023-01-31T11:19:27.593Z,15.60
2023-01-31T11:21:55.650Z,17.93
2023-01-31T11:24:24.293Z,13.97
2023-01-31T11:26:53.994Z,15.17
2023-01-31T11:29:23.809Z,19.73
2023-01-31T11:31:53.614Z,18.17
2023-01-31T11:34:23.365Z,14.33
2023-01-31T11:36:51.800Z,25.60
2023-01-31T11:39:25.248Z,28.67
2023-01-31T11:41:52.935Z,35.83
2023-01-31T11:44:21.220Z,22.83
2023-01-31T11:46:51.802Z,34.53
2023-01-31T11:49:23.704Z,29.97
2023-01-31T11:51:52.189Z,21.53
2023-01-31T11:54:21.537Z,25.10
2023-01-31T11:56:49.539Z,28.23
2023-01-31T11:59:19.582Z,18.43
2023-01-31T12:01:50.174Z,21.63
2023-01-31T12:04:19.792Z,23.80
2023-01-31T12:06:58.048Z,22.13
2023-01-31T12:09:27.558Z,25.43
2023-01-31T12:11:56.212Z,31.40
2023-01-31T12:14:25.071Z,28.57
2023-01-31T12:16:55.677Z,28.73
2023-01-31T12:19:30.724Z,30.50
2023-01-31T12:22:03.912Z,26.93
2023-01-31T12:24:37.120Z,24.90
2023-01-31T12:27:08.910Z,21.40
2023-01-31T12:29:45.817Z,28.07
2023-01-31T12:32:23.035Z,22.73
2023-01-31T12:35:09.498Z,21.23
2023-01-31T12:37:44.559Z,20.67
2023-01-31T12:40:24.660Z,17.13
2023-01-31T12:42:58.173Z,22.73
2023-01-31T12:45:43.959Z,20.10
2023-01-31T12:48:18.800Z,22.10
2023-01-31T12:50:48.779Z,22.70
2023-01-31T12:53:23.174Z,28.53
2023-01-31T12:55:57.971Z,23.73
2023-01-31T12:58:36.857Z,24.57
2023-01-31T13:01:05.753Z,25.67
2023-01-31T13:03:39.229Z,23.47
2023-01-31T13:06:08.180Z,28.17
2023-01-31T13:08:41.072Z,19.53
2023-01-31T13:11:10.936Z,23.10
2023-01-31T13:13:41.339Z,24.07
2023-01-31T13:16:13.494Z,21.70
2023-01-31T13:18:42.656Z,22.37
2023-01-31T13:21:12.172Z,20.00
2023-01-31T13:24:06.018Z,23.37
2023-01-31T13:26:34.820Z,38.80
2023-01-31T13:29:04.773Z,25.43
2023-01-31T13:31:35.159Z,26.30
2023-01-31T13:34:07.172Z,28.57
2023-01-31T13:36:38.485Z,26.60
2023-01-31T13:39:09.978Z,27.13
2023-01-31T13:41:39.621Z,19.37
2023-01-31T13:44:08.067Z,25.23
2023-01-31T13:46:42.124Z,25.60
2023-01-31T13:49:16.052Z,21.43
2023-01-31T13:51:46.815Z,22.40
2023-01-31T13:54:18.904Z,20.47
2023-01-31T13:56:50.523Z,21.60
2023-01-31T13:59:22.051Z,16.03
2023-01-31T14:01:51.344Z,11.90
2023-01-31T14:04:27.355Z,17.20
2023-01-31T14:06:56.117Z,12.80
2023-01-31T14:09:26.391Z,20.47
2023-01-31T14:11:56.170Z,12.13
2023-01-31T14:14:39.291Z,12.03
2023-01-31T14:17:10.922Z,12.60
2023-01-31T14:19:55.135Z,12.30
2023-01-31T14:22:23.710Z,11.83
2023-01-31T14:25:04.181Z,18.93
2023-01-31T14:27:34.886Z,8.83
2023-01-31T14:30:10.432Z,11.50
2023-01-31T14:32:40.406Z,7.60
2023-01-31T14:35:25.544Z,9.47
2023-01-31T14:37:56.873Z,10.70
2023-01-31T14:40:27.304Z,9.10
2023-01-31T14:43:18.955Z,10.93
2023-01-31T14:46:01.032Z,10.83
2023-01-31T14:48:39.630Z,10.93
2023-01-31T14:51:14.356Z,16.77
2023-01-31T14:53:58.572Z,11.73
2023-01-31T14:56:34.873Z,12.47
2023-01-31T14:59:03.174Z,11.30
2023-01-31T15:01:34.941Z,13.50
2023-01-31T15:04:03.687Z,11.63
2023-01-31T15:06:33.700Z,12.30
2023-01-31T15:09:29.090Z,9.40
2023-01-31T15:11:57.700Z,10.30
2023-01-31T15:14:37.760Z,14.70
2023-01-31T15:17:27.270Z,8.70
2023-01-31T15:20:06.630Z,10.80
2023-01-31T15:22:35.128Z,15.60
2023-01-31T15:25:06.725Z,14.40
2023-01-31T15:27:38.573Z,18.37
2023-01-31T15:30:09.280Z,13.67
2023-01-31T15:32:41.079Z,14.50
2023-01-31T15:35:15.328Z,18.53
2023-01-31T15:37:43.369Z,15.60
2023-01-31T15:40:20.175Z,14.93
2023-01-31T15:42:48.015Z,14.50
2023-01-31T15:45:21.227Z,19.70
2023-01-31T15:47:57.228Z,17.77
2023-01-31T15:50:26.149Z,19.20
2023-01-31T15:52:55.511Z,15.60
2023-01-31T15:55:23.608Z,16.93
2023-01-31T15:57:55.308Z,18.23
2023-01-31T16:00:24.046Z,17.00
2023-01-31T16:03:00.465Z,18.40
2023-01-31T16:05:32.431Z,15.30
2023-01-31T16:08:01.662Z,18.13
2023-01-31T16:10:30.669Z,22.50
2023-01-31T16:12:59.626Z,18.70
2023-01-31T16:15:28.677Z,16.53
2023-01-31T16:17:58.148Z,18.23
2023-01-31T16:20:44.198Z,22.17
2023-01-31T16:23:27.504Z,17.00
2023-01-31T16:25:58.327Z,17.70
2023-01-31T16:28:26.240Z,19.90
2023-01-31T16:30:54.318Z,22.60
2023-01-31T16:33:23.322Z,21.97
2023-01-31T16:36:12.889Z,22.17
2023-01-31T16:38:44.185Z,20.53
2023-01-31T16:41:12.916Z,22.73
2023-01-31T16:43:41.665Z,19.80
2023-01-31T16:46:20.284Z,20.13
2023-01-31T16:49:02.049Z,22.90
2023-01-31T16:51:42.868Z,21.43
2023-01-31T16:54:17.590Z,20.60
2023-01-31T16:56:45.738Z,21.57
2023-01-31T16:59:32.140Z,22.17
2023-01-31T17:02:02.956Z,21.43
2023-01-31T17:04:31.062Z,22.83
2023-01-31T17:07:03.696Z,26.57
2023-01-31T17:09:35.354Z,24.23
2023-01-31T17:12:04.690Z,23.50
2023-01-31T17:14:34.272Z,20.63
2023-01-31T17:17:12.698Z,24.40
2023-01-31T17:19:44.192Z,26.40
2023-01-31T17:22:14.966Z,24.43
2023-01-31T17:24:44.902Z,24.70
2023-01-31T17:27:14.150Z,20.97
2023-01-31T17:29:42.062Z,26.57
2023-01-31T17:32:11.837Z,20.10
2023-01-31T17:34:39.569Z,24.30
2023-01-31T17:37:07.453Z,22.60
2023-01-31T17:39:35.910Z,23.00
2023-01-31T17:42:05.259Z,20.47
2023-01-31T17:44:33.263Z,21.13
2023-01-31T17:47:00.949Z,25.93
2023-01-31T17:49:29.454Z,22.63
2023-01-31T17:51:58.834Z,22.00
2023-01-31T17:54:26.671Z,24.60
2023-01-31T17:56:54.486Z,27.07
2023-01-31T17:59:45.317Z,26.63
2023-01-31T18:02:13.008Z,25.10
2023-01-31T18:04:40.787Z,25.53
2023-01-31T18:07:08.489Z,24.33
2023-01-31T18:09:36.205Z,19.57
2023-01-31T18:12:04.455Z,26.33
2023-01-31T18:17:44.706Z,25.60
2023-01-31T18:20:13.514Z,22.90
2023-01-31T18:22:41.475Z,21.63
2023-01-31T18:25:09.496Z,20.40
2023-01-31T18:27:37.304Z,22.07
2023-01-31T18:30:06.521Z,23.23
2023-01-31T18:32:35.303Z,19.10
2023-01-31T18:35:05.059Z,20.50
2023-01-31T18:37:32.957Z,19.57
2023-01-31T18:40:00.853Z,18.90
2023-01-31T18:42:28.978Z,18.23
2023-01-31T18:44:56.635Z,21.10
2023-01-31T18:47:24.823Z,21.83
2023-01-31T18:49:52.756Z,21.30
2023-01-31T18:52:23.676Z,19.27
2023-01-31T18:54:52.658Z,26.13
2023-01-31T18:57:20.495Z,27.73
2023-01-31T18:59:48.201Z,16.13
2023-01-31T19:02:15.981Z,19.23
2023-01-31T19:04:44.154Z,16.30
2023-01-31T19:07:12.165Z,16.43
2023-01-31T19:09:42.715Z,13.60
2023-01-31T19:12:11.048Z,17.77
2023-01-31T19:14:38.744Z,13.10
2023-01-31T19:17:06.676Z,16.17
2023-01-31T19:19:34.944Z,17.53
2023-01-31T19:22:03.102Z,16.23
2023-01-31T19:24:31.359Z,12.50
2023-01-31T19:27:00.715Z,12.90
2023-01-31T19:29:28.990Z,12.50
2023-01-31T19:31:57.092Z,13.93
2023-01-31T19:34:27.097Z,11.20
2023-01-31T19:36:55.139Z,4.43
2023-01-31T19:39:22.776Z,7.33
2023-01-31T19:41:50.573Z,5.13
2023-01-31T19:44:20.647Z,5.73
2023-01-31T19:46:52.014Z,12.43
2023-01-31T19:49:20.136Z,5.70
2023-01-31T19:51:47.856Z,7.47
2023-01-31T19:54:17.389Z,7.17
2023-01-31T19:56:45.206Z,5.90
2023-01-31T19:59:13.048Z,11.10
2023-01-31T20:01:42.183Z,11.60
2023-01-31T20:04:11.041Z,10.70
2023-01-31T20:06:38.739Z,16.30
2023-01-31T20:09:07.607Z,10.17
2023-01-31T20:11:36.658Z,10.73
2023-01-31T20:14:06.412Z,11.57
2023-01-31T20:16:34.432Z,6.50
2023-01-31T20:19:03.808Z,11.83
2023-01-31T20:21:31.869Z,10.90
2023-01-31T20:23:59.918Z,13.77
2023-01-31T20:26:29.647Z,15.70
2023-01-31T20:28:57.951Z,13.40
2023-01-31T20:31:25.736Z,11.50
2023-01-31T20:33:54.650Z,18.13
2023-01-31T20:36:24.139Z,9.40
2023-01-31T20:38:52.337Z,10.43
2023-01-31T20:41:21.278Z,11.93
2023-01-31T20:43:50.331Z,16.73
2023-01-31T20:46:19.398Z,12.43
2023-01-31T20:48:47.327Z,10.83
2023-01-31T20:51:15.019Z,15.93
2023-01-31T20:53:44.127Z,11.37
2023-01-31T20:56:11.917Z,12.13
2023-01-31T20:58:40.422Z,19.87
2023-01-31T21:01:12.169Z,18.03
2023-01-31T21:03:40.222Z,17.67
2023-01-31T21:06:08.545Z,27.23
2023-01-31T21:08:36.788Z,18.83
2023-01-31T21:11:07.586Z,19.73
2023-01-31T21:13:35.491Z,11.57
2023-01-31T21:16:04.406Z,18.20
2023-01-31T21:18:33.310Z,18.13
2023-01-31T21:21:03.865Z,23.33
2023-01-31T21:23:31.754Z,20.47
2023-01-31T21:26:01.700Z,16.40
2023-01-31T21:28:31.588Z,13.10
2023-01-31T21:30:59.992Z,16.67
2023-01-31T21:33:29.067Z,16.07
2023-01-31T21:36:00.839Z,11.67
2023-01-31T21:38:29.330Z,18.40
2023-01-31T21:41:15.309Z,18.03
2023-01-31T21:43:45.696Z,26.13
2023-01-31T21:46:15.698Z,12.67
2023-01-31T21:48:44.777Z,15.03
2023-01-31T21:51:14.069Z,12.33
2023-01-31T21:53:42.578Z,11.87
2023-01-31T21:56:11.953Z,17.93
2023-01-31T21:58:40.160Z,11.07
2023-01-31T22:01:11.503Z,9.60
2023-01-31T22:03:42.520Z,5.30
2023-01-31T22:06:12.226Z,7.50
2023-01-31T22:08:40.310Z,7.70
2023-01-31T22:11:10.404Z,6.30
2023-01-31T22:13:38.823Z,6.27
2023-01-31T22:16:08.651Z,8.77
2023-01-31T22:18:38.875Z,4.87
2023-01-31T22:21:08.022Z,7.03
2023-01-31T22:23:36.407Z,7.80
2023-01-31T22:26:05.295Z,12.07
2023-01-31T22:28:33.155Z,8.90
2023-01-31T22:31:02.081Z,6.67
2023-01-31T22:33:32.455Z,11.23
2023-01-31T22:36:01.699Z,10.23
2023-01-31T22:38:29.688Z,12.40
2023-01-31T22:40:57.811Z,11.67
2023-01-31T22:43:25.523Z,22.63
2023-01-31T22:45:54.069Z,16.87
2023-01-31T22:48:25.068Z,19.33
2023-01-31T22:50:56.676Z,16.70
2023-01-31T22:53:26.119Z,18.77
2023-01-31T22:55:54.627Z,22.13
2023-01-31T22:58:22.966Z,23.93
2023-01-31T23:00:50.672Z,28.23
2023-01-31T23:03:18.488Z,20.43
2023-01-31T23:05:46.224Z,22.87
2023-01-31T23:08:14.442Z,31.07
2023-01-31T23:10:44.078Z,33.33
2023-01-31T23:13:12.375Z,23.47
2023-01-31T23:15:41.007Z,29.20
2023-01-31T23:18:08.878Z,25.00
2023-01-31T23:20:36.577Z,27.50
2023-01-31T23:23:04.310Z,28.03
2023-01-31T23:25:31.985Z,29.43
2023-01-31T23:28:02.329Z,24.33
2023-01-31T23:30:30.301Z,24.47
2023-01-31T23:32:57.953Z,29.50
2023-01-31T23:35:25.855Z,23.90
2023-01-31T23:37:53.971Z,20.90
2023-01-31T23:40:22.288Z,22.63
2023-01-31T23:42:50.240Z,17.60
2023-01-31T23:45:19.792Z,33.83
2023-01-31T23:47:47.778Z,25.57
2023-01-31T23:50:15.907Z,27.10
2023-01-31T23:52:43.568Z,21.70
2023-01-31T23:55:11.393Z,30.70
2023-01-31T23:57:39.089Z,24.03
